Time;durP1;ratioP1;P1;durP2;ratioP2;P2;SDS_P1;SDS_P2;PMS_P1;PMS_P2;Temp;Humidity;BMP_temperature;BMP_pressure;BME280_temperature;BME280_humidity;BME280_pressure;Samples;Min_cycle;Max_cycle;Signal;HPM_P1;HPM_P2
2022/03/08 00:01:51;;;;;;;13.20;4.95;;;1.20;97.20;;;0.87;60.18;101796.31;5185389;28;20049;-72
2022/03/08 00:04:25;;;;;;;11.90;4.63;;;1.20;97.30;;;0.87;60.73;101790.28;5185424;28;20072;-72
2022/03/08 00:06:57;;;;;;;11.93;4.68;;;1.20;97.40;;;0.82;60.52;101789.88;5185430;28;20104;-72
2022/03/08 00:09:30;;;;;;;11.57;3.78;;;1.10;97.60;;;0.80;60.75;101787.19;5185763;28;20133;-72
2022/03/08 00:12:03;;;;;;;10.63;4.05;;;1.10;97.50;;;0.82;60.55;101780.50;5184093;28;20046;-72
2022/03/08 00:14:35;;;;;;;12.00;4.28;;;1.10;97.20;;;0.85;60.46;101781.53;5184704;28;20104;-72
2022/03/08 00:17:07;;;;;;;9.80;4.15;;;1.20;96.80;;;0.88;60.38;101781.81;5185144;28;20505;-72
2022/03/08 00:19:40;;;;;;;9.48;3.83;;;1.20;97.00;;;0.85;60.60;101781.53;5184906;28;20042;-72
2022/03/08 00:22:13;;;;;;;9.85;3.80;;;1.20;97.20;;;0.79;60.62;101772.53;5163358;28;20528;-71
2022/03/08 00:24:45;;;;;;;9.10;4.05;;;1.10;97.50;;;0.77;61.07;101779.19;5173608;28;20054;-72
2022/03/08 00:27:17;;;;;;;9.55;4.07;;;1.10;97.70;;;0.75;61.40;101775.59;5164533;28;20061;-71
2022/03/08 00:29:49;;;;;;;7.93;3.55;;;1.10;98.00;;;0.74;61.43;101775.47;5164902;28;20054;-71
2022/03/08 00:32:21;;;;;;;7.25;4.18;;;1.10;98.00;;;0.73;61.14;101772.00;5164957;28;20392;-71
2022/03/08 00:34:55;;;;;;;9.98;4.15;;;1.10;98.00;;;0.72;61.32;101767.63;5164426;28;20046;-72
2022/03/08 00:37:26;;;;;;;10.00;3.85;;;1.10;97.90;;;0.74;60.75;101767.75;5164541;28;20488;-73
2022/03/08 00:39:59;;;;;;;8.18;3.90;;;1.10;97.70;;;0.75;61.12;101764.44;5164738;28;20479;-71
2022/03/08 00:42:31;;;;;;;7.80;3.78;;;1.00;97.70;;;0.73;60.49;101761.72;5164260;28;20054;-72
2022/03/08 00:45:07;;;;;;;10.77;4.15;;;1.10;97.20;;;0.75;60.36;101761.84;5163976;28;20061;-72
2022/03/08 00:47:41;;;;;;;10.80;4.10;;;1.10;96.90;;;0.78;60.48;101756.97;5164357;28;20050;-72
2022/03/08 00:50:18;;;;;;;9.02;4.20;;;1.10;97.10;;;0.78;60.04;101755.34;5164653;28;20047;-72
2022/03/08 00:52:50;;;;;;;7.53;3.83;;;1.20;96.90;;;0.76;60.45;101754.28;5164650;28;20050;-72
2022/03/08 00:55:25;;;;;;;9.95;3.75;;;1.10;97.20;;;0.76;60.53;101751.72;5164033;28;20054;-72
2022/03/08 00:57:58;;;;;;;9.18;3.78;;;1.10;97.20;;;0.73;60.88;101745.44;5174139;28;20048;-71
2022/03/08 01:00:32;;;;;;;9.02;3.75;;;1.10;97.30;;;0.70;61.36;101753.75;5182503;28;20046;-72
2022/03/08 01:03:04;;;;;;;10.90;4.18;;;1.10;97.80;;;0.67;61.41;101745.78;5183385;28;20049;-72
2022/03/08 01:05:38;;;;;;;7.45;3.80;;;1.10;97.90;;;0.65;61.11;101737.06;5184336;28;20046;-72
2022/03/08 01:08:11;;;;;;;6.75;3.70;;;1.00;98.00;;;0.63;61.39;101733.44;5184492;28;20046;-72
2022/03/08 01:10:43;;;;;;;7.40;3.95;;;1.00;98.30;;;0.58;61.85;101734.69;5184369;28;20054;-72
2022/03/08 01:13:15;;;;;;;8.98;4.15;;;0.90;98.70;;;0.54;62.54;101727.50;5184494;28;20075;-72
2022/03/08 01:15:47;;;;;;;9.15;3.60;;;0.90;98.80;;;0.49;62.50;101721.03;5185116;28;20058;-71
2022/03/08 01:18:19;;;;;;;10.77;3.80;;;0.90;99.20;;;0.46;62.50;101728.47;5184059;28;20133;-72
2022/03/08 01:20:52;;;;;;;11.48;4.60;;;0.80;99.20;;;0.44;63.13;101717.16;5184307;28;20054;-72
2022/03/08 01:23:24;;;;;;;12.40;3.83;;;0.80;99.40;;;0.44;62.96;101725.75;5184373;28;20053;-72
2022/03/08 01:25:56;;;;;;;7.95;4.32;;;0.80;99.30;;;0.42;62.68;101726.38;5184506;28;20407;-71
2022/03/08 01:28:28;;;;;;;8.10;3.65;;;0.80;99.10;;;0.44;62.72;101719.72;5183852;28;20053;-72
2022/03/08 01:31:00;;;;;;;8.05;3.92;;;0.80;99.00;;;0.44;62.81;101719.72;5184587;28;20069;-72
2022/03/08 01:33:32;;;;;;;7.95;3.60;;;0.80;99.20;;;0.37;62.45;101715.69;5184438;28;20049;-72
2022/03/08 01:36:07;;;;;;;9.02;4.20;;;0.80;99.30;;;0.36;62.69;101716.47;5184031;28;20042;-71
2022/03/08 01:38:39;;;;;;;9.23;3.83;;;0.70;99.40;;;0.36;62.99;101720.69;5181483;28;20068;-71
2022/03/08 01:41:11;;;;;;;7.50;3.40;;;0.70;99.40;;;0.37;63.12;101722.50;5176280;28;20046;-72
2022/03/08 01:43:45;;;;;;;8.63;3.95;;;0.70;99.40;;;0.38;62.78;101722.63;5183970;28;20049;-72
2022/03/08 01:46:17;;;;;;;7.88;3.85;;;0.80;99.10;;;0.38;62.25;101732.00;5184283;28;20049;-72
2022/03/08 01:48:49;;;;;;;8.23;3.72;;;0.80;98.80;;;0.36;61.87;101731.88;5183726;28;20137;-73
2022/03/08 01:51:23;;;;;;;9.15;4.65;;;0.80;98.10;;;0.41;61.51;101720.34;5184221;28;20478;-72
2022/03/08 01:53:56;;;;;;;9.98;3.50;;;0.90;97.70;;;0.53;60.65;101715.44;5183938;28;20094;-71
2022/03/08 01:56:28;;;;;;;7.43;3.42;;;1.00;97.20;;;0.63;60.56;101712.91;5184327;28;20053;-72
2022/03/08 01:59:00;;;;;;;8.50;3.58;;;1.10;96.80;;;0.74;59.32;101707.06;5187500;28;20084;-72
2022/03/08 02:01:32;;;;;;;7.95;3.70;;;1.20;96.20;;;0.87;59.27;101706.47;5187866;28;20049;-72
2022/03/08 02:04:04;;;;;;;7.28;3.33;;;1.30;95.90;;;0.92;58.49;101702.66;5187857;28;20056;-71
2022/03/08 02:06:38;;;;;;;7.65;3.38;;;1.40;95.40;;;0.94;58.73;101705.34;5187856;28;20050;-72
2022/03/08 02:09:09;;;;;;;7.82;3.30;;;1.40;95.20;;;1.01;58.58;101698.31;5187602;28;20142;-72
2022/03/08 02:11:43;;;;;;;6.28;3.25;;;1.50;94.80;;;1.05;58.44;101697.81;5187907;28;20053;-72
2022/03/08 02:14:16;;;;;;;7.82;3.00;;;1.50;94.40;;;1.11;57.97;101689.75;5187902;28;20524;-72
2022/03/08 02:16:48;;;;;;;7.00;2.97;;;1.60;94.20;;;1.20;57.64;101690.53;5187579;28;20046;-71
2022/03/08 02:19:20;;;;;;;6.20;3.00;;;1.60;93.90;;;1.26;56.81;101688.47;5187448;28;20041;-71
2022/03/08 02:21:54;;;;;;;5.45;2.97;;;1.70;93.50;;;1.35;57.50;101685.78;5187494;28;20145;-72
2022/03/08 02:24:26;;;;;;;5.22;3.10;;;1.80;93.50;;;1.45;56.84;101692.63;5187577;28;20056;-72
2022/03/08 02:27:00;;;;;;;7.63;3.40;;;1.80;93.10;;;1.47;56.20;101675.66;5187131;28;20414;-72
2022/03/08 02:29:32;;;;;;;4.45;3.38;;;1.90;92.80;;;1.52;56.56;101680.44;5187421;28;20453;-72
2022/03/08 02:32:05;;;;;;;7.15;3.22;;;1.90;92.50;;;1.53;55.72;101681.34;5186980;28;20052;-72
2022/03/08 02:34:37;;;;;;;5.47;2.88;;;2.00;92.20;;;1.55;55.92;101675.53;5187265;28;20530;-72
2022/03/08 02:37:12;;;;;;;5.43;3.63;;;2.00;92.10;;;1.56;56.19;101673.88;5186889;28;20404;-71
2022/03/08 02:39:44;;;;;;;6.28;3.65;;;2.00;91.90;;;1.57;56.02;101674.03;5187030;28;20407;-72
2022/03/08 02:42:16;;;;;;;7.93;3.47;;;2.10;91.80;;;1.59;55.95;101675.03;5186529;28;20050;-71
2022/03/08 02:44:48;;;;;;;5.57;2.92;;;2.10;91.60;;;1.57;56.17;101665.41;5187009;28;20049;-71
2022/03/08 02:47:21;;;;;;;6.60;3.38;;;2.10;91.60;;;1.57;56.05;101662.84;5186982;28;20482;-71
2022/03/08 02:49:53;;;;;;;6.35;3.28;;;2.10;91.50;;;1.60;55.72;101652.81;5186905;28;20056;-71
2022/03/08 02:52:26;;;;;;;7.28;3.67;;;2.10;91.50;;;1.65;55.42;101648.97;5186950;28;20450;-71
2022/03/08 02:54:58;;;;;;;5.88;3.70;;;2.10;91.50;;;1.70;55.30;101649.34;5186875;28;20046;-72
2022/03/08 02:57:30;;;;;;;7.88;3.50;;;2.20;91.30;;;1.70;55.13;101647.69;5186532;28;20053;-73
2022/03/08 03:00:05;;;;;;;7.03;3.60;;;2.20;91.20;;;1.71;55.71;101638.28;5186819;28;20056;-71
2022/03/08 03:02:37;;;;;;;6.35;3.20;;;2.20;91.20;;;1.73;55.76;101635.06;5186598;28;20050;-72
2022/03/08 03:05:11;;;;;;;5.72;3.42;;;2.20;91.50;;;1.71;55.12;101636.63;5186604;28;20046;-72
2022/03/08 03:07:44;;;;;;;6.15;4.00;;;2.20;91.40;;;1.68;55.45;101626.06;5186082;28;20407;-72
2022/03/08 03:10:18;;;;;;;6.43;3.20;;;2.20;91.10;;;1.70;55.31;101628.78;5186280;28;20057;-71
2022/03/08 03:12:52;;;;;;;9.07;3.30;;;2.20;91.20;;;1.70;55.23;101629.69;5186589;28;20050;-72
2022/03/08 03:15:26;;;;;;;7.30;3.55;;;2.20;91.10;;;1.69;55.19;101633.00;5186537;28;20049;-71
2022/03/08 03:17:59;;;;;;;7.78;3.55;;;2.20;91.10;;;1.65;55.51;101636.09;5186238;28;20050;-71
2022/03/08 03:20:31;;;;;;;7.13;3.67;;;2.10;91.10;;;1.63;55.73;101637.66;5186193;28;20041;-71
2022/03/08 03:23:05;;;;;;;7.82;3.95;;;2.20;91.10;;;1.58;55.72;101632.13;5186472;28;20056;-72
2022/03/08 03:25:37;;;;;;;7.03;3.97;;;2.10;91.20;;;1.58;55.81;101628.66;5186343;28;20388;-72
2022/03/08 03:28:09;;;;;;;11.82;4.07;;;2.10;91.30;;;1.53;55.95;101629.94;5186030;28;20050;-72
2022/03/08 03:30:41;;;;;;;7.70;4.00;;;2.10;91.40;;;1.49;56.44;101633.91;5185840;28;20056;-72
2022/03/08 03:33:13;;;;;;;8.65;3.95;;;2.00;91.60;;;1.43;56.59;101633.38;5185999;28;20056;-72
2022/03/08 03:35:45;;;;;;;7.40;3.47;;;2.00;91.70;;;1.42;56.49;101630.69;5184373;28;20134;-72
2022/03/08 03:38:18;;;;;;;8.98;3.83;;;1.90;91.90;;;1.39;56.55;101633.91;5186040;28;20045;-72
2022/03/08 03:40:50;;;;;;;7.93;2.97;;;1.90;92.00;;;1.35;56.76;101634.41;5185660;28;20042;-72
2022/03/08 03:43:22;;;;;;;8.38;3.65;;;1.90;92.00;;;1.30;57.04;101625.41;5186116;28;20050;-72
2022/03/08 03:45:54;;;;;;;7.43;3.58;;;1.90;92.10;;;1.30;57.12;101633.13;5185663;28;20046;-71
2022/03/08 03:48:26;;;;;;;7.85;3.50;;;1.80;92.20;;;1.31;56.58;101637.50;5185211;28;20050;-72
2022/03/08 03:50:58;;;;;;;7.53;3.33;;;1.90;92.40;;;1.31;56.57;101637.50;5185914;28;20069;-71
2022/03/08 03:53:31;;;;;;;8.98;3.88;;;1.80;92.10;;;1.32;56.43;101642.78;5185847;28;20050;-72
2022/03/08 03:56:04;;;;;;;9.95;3.55;;;1.90;92.00;;;1.35;56.52;101643.03;5185485;28;20145;-72
2022/03/08 03:58:36;;;;;;;7.25;3.58;;;1.80;92.00;;;1.35;56.85;101643.03;5185618;28;20050;-71
2022/03/08 04:01:08;;;;;;;6.90;3.58;;;1.90;92.00;;;1.35;56.50;101650.72;5185994;28;20045;-72
2022/03/08 04:03:40;;;;;;;8.90;4.00;;;1.90;91.90;;;1.34;56.18;101646.38;5185822;28;20050;-72
2022/03/08 04:06:12;;;;;;;7.05;3.78;;;1.80;91.90;;;1.35;56.80;101645.59;5185587;28;20050;-71
2022/03/08 04:08:45;;;;;;;8.63;3.83;;;1.80;92.00;;;1.35;56.12;101635.31;5185109;28;20053;-72
2022/03/08 04:11:17;;;;;;;8.35;3.90;;;1.80;92.00;;;1.35;56.21;101630.16;5184983;28;20049;-72
2022/03/08 04:13:49;;;;;;;6.40;2.83;;;1.80;92.00;;;1.34;56.14;101628.38;5185339;28;20056;-71
2022/03/08 04:16:22;;;;;;;9.85;3.85;;;1.80;92.10;;;1.32;56.79;101623.91;5185411;28;20410;-72
2022/03/08 04:18:54;;;;;;;8.40;3.50;;;1.80;92.20;;;1.27;56.41;101628.63;5184521;28;20545;-71
2022/03/08 04:21:26;;;;;;;8.88;3.80;;;1.70;92.20;;;1.24;56.95;101620.69;5250611;23;20053;-72
2022/03/08 04:24:00;;;;;;;8.43;4.18;;;1.80;92.40;;;1.21;56.86;101625.53;5204554;28;20136;-73
2022/03/08 04:26:32;;;;;;;7.93;3.80;;;1.80;92.50;;;1.20;57.52;101617.72;5209473;28;20049;-74
2022/03/08 04:29:04;;;;;;;7.10;3.67;;;1.70;92.50;;;1.19;57.40;101613.34;5225101;28;20064;-71
2022/03/08 04:31:36;;;;;;;10.68;3.85;;;1.80;92.60;;;1.18;56.96;101617.59;5226331;28;20055;-72
2022/03/08 04:34:08;;;;;;;8.60;3.78;;;1.70;92.50;;;1.20;57.07;101600.63;5226060;28;20067;-71
2022/03/08 04:36:40;;;;;;;7.82;3.38;;;1.70;92.60;;;1.20;57.38;101602.31;5226074;28;20052;-74
2022/03/08 04:39:13;;;;;;;7.93;4.13;;;1.70;92.50;;;1.22;56.96;101591.38;5227675;28;20052;-71
2022/03/08 04:41:45;;;;;;;8.35;4.93;;;1.70;92.50;;;1.21;57.01;101594.72;5225997;28;20405;-74
2022/03/08 04:44:17;;;;;;;7.72;3.97;;;1.70;92.30;;;1.23;56.57;101593.16;5225651;28;20045;-72
2022/03/08 04:46:49;;;;;;;8.88;3.80;;;1.70;92.40;;;1.25;56.51;101596.78;5225541;28;20501;-72
2022/03/08 04:49:21;;;;;;;8.45;4.03;;;1.70;92.40;;;1.25;56.36;101603.59;5225059;28;20056;-72
2022/03/08 04:51:53;;;;;;;8.85;3.83;;;1.70;92.30;;;1.26;56.36;101603.72;5225550;28;20045;-72
2022/03/08 04:54:27;;;;;;;9.43;4.60;;;1.70;92.10;;;1.30;56.52;101597.16;5225803;28;20048;-72
2022/03/08 04:56:58;;;;;;;8.05;3.88;;;1.80;92.40;;;1.36;56.70;101600.25;5227589;28;20052;-73
2022/03/08 04:59:30;;;;;;;7.57;3.67;;;1.70;92.20;;;1.34;56.27;101606.94;5225462;28;20478;-71
2022/03/08 05:02:03;;;;;;;7.80;4.00;;;1.80;92.30;;;1.31;56.57;101607.59;5225688;28;20501;-72
2022/03/08 05:04:35;;;;;;;8.50;4.00;;;1.70;92.00;;;1.27;56.43;101600.38;5225118;28;20055;-73
2022/03/08 05:07:07;;;;;;;7.18;3.85;;;1.70;91.90;;;1.29;56.61;101603.97;5225192;28;20060;-72
2022/03/08 05:09:40;;;;;;;7.47;3.33;;;1.70;91.90;;;1.32;55.86;101606.81;5225098;28;20049;-71
2022/03/08 05:12:12;;;;;;;6.05;3.40;;;1.70;91.90;;;1.31;56.33;101605.00;5225368;28;20045;-73
2022/03/08 05:14:44;;;;;;;6.70;3.75;;;1.70;91.80;;;1.26;56.09;101598.59;5225435;28;20053;-73
2022/03/08 05:17:16;;;;;;;8.85;3.78;;;1.70;91.80;;;1.26;56.39;101608.84;5225020;28;20045;-73
2022/03/08 05:19:48;;;;;;;7.57;3.28;;;1.70;91.70;;;1.27;56.06;101602.94;5225325;28;20041;-72
2022/03/08 05:22:20;;;;;;;9.45;3.65;;;1.70;91.80;;;1.29;55.82;101600.50;5225197;28;20049;-72
2022/03/08 05:24:53;;;;;;;9.48;3.63;;;1.70;91.70;;;1.28;55.95;101601.28;5225291;28;20075;-72
2022/03/08 05:27:25;;;;;;;8.13;4.07;;;1.70;91.60;;;1.27;55.97;101605.50;5224766;28;20415;-73
2022/03/08 05:29:57;;;;;;;6.43;3.33;;;1.70;91.60;;;1.20;55.66;101603.19;5225439;28;20484;-73
2022/03/08 05:32:29;;;;;;;7.50;3.83;;;1.70;91.40;;;1.19;56.38;101605.66;5228646;28;20059;-72
2022/03/08 05:35:01;;;;;;;8.40;3.92;;;1.70;91.50;;;1.17;55.96;101612.28;5229191;28;20056;-72
2022/03/08 05:37:36;;;;;;;7.03;4.18;;;1.70;91.60;;;1.17;56.02;101602.91;5229107;28;20096;-73
2022/03/08 05:40:12;;;;;;;7.93;3.75;;;1.70;91.60;;;1.19;56.51;101606.53;5229130;28;20045;-72
2022/03/08 05:42:44;;;;;;;8.50;4.80;;;1.60;91.80;;;1.18;55.86;101604.75;5229172;28;20501;-72
2022/03/08 05:45:16;;;;;;;5.80;3.40;;;1.60;91.80;;;1.18;55.87;101614.13;5228970;28;20060;-74
2022/03/08 05:47:48;;;;;;;8.57;4.38;;;1.60;91.80;;;1.19;55.87;101616.81;5228546;28;20098;-73
2022/03/08 05:50:20;;;;;;;6.85;3.00;;;1.60;91.80;;;1.18;56.25;101615.03;5228758;28;20045;-73
2022/03/08 05:52:52;;;;;;;6.47;3.90;;;1.60;91.80;;;1.15;56.23;101619.88;5225493;28;20075;-74
2022/03/08 05:55:26;;;;;;;8.75;3.67;;;1.60;91.90;;;1.15;55.98;101626.69;5199525;28;20072;-73
2022/03/08 05:57:58;;;;;;;6.70;3.30;;;1.60;91.90;;;1.13;56.00;101628.25;5205812;28;20057;-73
2022/03/08 06:00:30;;;;;;;7.72;3.42;;;1.60;91.80;;;1.10;56.80;101631.41;5208062;28;20041;-73
2022/03/08 06:03:02;;;;;;;7.97;3.70;;;1.50;92.30;;;1.09;56.30;101633.09;5207903;28;20045;-72
2022/03/08 06:05:35;;;;;;;9.80;3.97;;;1.50;92.20;;;1.11;56.11;101632.31;5208021;28;20063;-72
2022/03/08 06:08:07;;;;;;;8.00;4.10;;;1.50;92.00;;;1.09;56.57;101635.66;5207700;28;20154;-74
2022/03/08 06:10:41;;;;;;;6.65;3.97;;;1.50;92.00;;;1.13;56.26;101634.28;5208302;28;20403;-73
2022/03/08 06:13:13;;;;;;;7.95;4.82;;;1.50;92.30;;;1.12;56.21;101640.19;5208338;28;20409;-72
2022/03/08 06:15:45;;;;;;;6.90;3.45;;;1.50;92.10;;;1.15;56.35;101642.09;5207676;28;20061;-73
2022/03/08 06:18:17;;;;;;;10.10;3.92;;;1.50;92.50;;;1.17;56.61;101638.88;5207633;28;20045;-73
2022/03/08 06:20:49;;;;;;;8.70;5.20;;;1.50;92.20;;;1.20;56.45;101631.44;5207814;28;20052;-72
2022/03/08 06:23:21;;;;;;;11.63;4.65;;;1.60;92.50;;;1.23;56.27;101639.41;5207899;28;20049;-72
2022/03/08 06:25:54;;;;;;;13.60;4.78;;;1.50;92.70;;;1.23;57.06;101641.97;5207384;28;20049;-71
2022/03/08 06:28:26;;;;;;;8.73;4.20;;;1.60;92.90;;;1.22;57.04;101644.41;5207368;28;20049;-72
2022/03/08 06:30:58;;;;;;;9.70;4.70;;;1.60;92.70;;;1.34;56.89;101648.94;5207581;28;20049;-74
2022/03/08 06:33:30;;;;;;;9.02;4.07;;;1.60;93.00;;;1.83;56.28;101640.22;5207742;28;20045;-72
2022/03/08 06:36:02;;;;;;;7.50;3.95;;;1.90;93.30;;;2.59;55.49;101652.34;5207623;28;20049;-74
2022/03/08 06:38:34;;;;;;;8.20;4.38;;;2.30;93.30;;;3.37;54.04;101651.66;5200783;28;20138;-73
2022/03/08 06:41:07;;;;;;;7.60;4.50;;;2.80;92.80;;;4.19;51.89;101653.56;5206616;28;20375;-73
2022/03/08 06:43:40;;;;;;;8.57;3.85;;;3.40;91.80;;;4.65;50.47;101651.75;5206416;28;20053;-73
2022/03/08 06:46:12;;;;;;;7.82;4.07;;;3.90;90.00;;;5.05;49.60;101648.63;5207343;28;20494;-73
2022/03/08 06:48:44;;;;;;;7.75;3.83;;;4.30;87.80;;;5.56;48.08;101647.84;5206875;28;20053;-73
2022/03/08 06:51:15;;;;;;;14.07;6.05;;;4.70;84.60;;;5.84;47.25;101652.31;5207329;28;20264;-75
2022/03/08 06:53:47;;;;;;;9.57;4.50;;;5.00;82.00;;;5.89;46.59;101651.81;5205831;28;20041;-74
2022/03/08 06:56:21;;;;;;;10.80;4.55;;;5.20;79.80;;;5.96;46.43;101653.16;5206279;28;20046;-75
2022/03/08 06:58:53;;;;;;;9.30;4.50;;;5.40;78.80;;;7.08;44.99;101644.03;5205622;28;20041;-72
2022/03/08 07:01:25;;;;;;;14.98;4.78;;;5.90;78.40;;;8.79;41.38;101647.16;5206107;28;20045;-73
2022/03/08 07:03:57;;;;;;;11.45;5.50;;;7.00;73.80;;;10.50;38.25;101644.00;5205638;28;20045;-73
2022/03/08 07:06:29;;;;;;;10.23;5.90;;;8.30;68.70;;;12.05;36.19;101644.09;5204743;28;20052;-73
2022/03/08 07:09:01;;;;;;;12.65;6.57;;;9.70;64.60;;;13.36;33.24;101644.94;5205512;28;20439;-72
2022/03/08 07:11:36;;;;;;;8.70;4.70;;;10.90;59.70;;;14.48;31.19;101653.28;5206401;28;20049;-73
2022/03/08 07:14:08;;;;;;;8.27;4.28;;;12.00;55.90;;;15.47;29.47;101653.69;5204373;28;20065;-75
2022/03/08 07:16:40;;;;;;;6.95;4.05;;;13.00;53.30;;;16.36;27.69;101653.44;5205761;28;20049;-73
2022/03/08 07:19:13;;;;;;;8.77;4.85;;;13.90;50.50;;;16.96;26.99;101655.78;5205386;28;20072;-74
2022/03/08 07:21:46;;;;;;;10.82;4.72;;;14.60;48.90;;;17.52;25.69;101655.19;5205646;28;20049;-73
2022/03/08 07:24:18;;;;;;;9.25;4.45;;;15.20;46.90;;;17.90;25.19;101658.59;5206013;28;20056;-72
2022/03/08 07:26:51;;;;;;;9.30;4.90;;;15.60;46.00;;;18.38;24.31;101660.31;5206398;28;20056;-71
2022/03/08 07:29:23;;;;;;;11.55;7.57;;;16.10;44.70;;;18.78;23.73;101656.59;5205906;28;20051;-74
2022/03/08 07:31:55;;;;;;;11.52;4.78;;;16.50;43.90;;;19.08;23.26;101642.91;5206069;28;20057;-72
2022/03/08 07:34:27;;;;;;;7.88;4.40;;;16.80;43.10;;;19.48;22.75;101656.63;5200343;28;20063;-73
2022/03/08 07:36:59;;;;;;;6.57;3.85;;;17.20;42.50;;;19.61;22.08;101655.03;5205428;28;20049;-72
2022/03/08 07:39:31;;;;;;;5.72;3.28;;;17.40;41.40;;;19.18;21.58;101662.44;5206035;28;20504;-73
2022/03/08 07:42:05;;;;;;;6.20;3.95;;;17.20;40.00;;;17.54;22.40;101651.75;5206152;28;20477;-73
2022/03/08 07:44:38;;;;;;;7.28;3.92;;;16.30;40.00;;;17.08;23.40;101656.06;5205915;28;20049;-72
2022/03/08 07:47:10;;;;;;;5.63;3.92;;;15.70;41.00;;;16.99;23.38;101640.03;5205244;28;20053;-72
2022/03/08 07:49:42;;;;;;;7.03;3.85;;;15.50;41.10;;;16.99;23.24;101641.78;5205760;28;20055;-71
2022/03/08 07:52:14;;;;;;;6.15;3.50;;;15.50;41.10;;;16.49;23.57;101644.97;5206071;28;20124;-71
2022/03/08 07:54:46;;;;;;;5.43;3.22;;;15.10;41.10;;;16.92;27.10;101651.28;5206005;28;20052;-74
2022/03/08 07:57:20;;;;;;;6.07;3.53;;;15.20;46.30;;;17.05;23.39;101650.69;5205467;28;20049;-69
2022/03/08 07:59:52;;;;;;;5.75;3.60;;;15.40;41.60;;;16.26;24.18;101651.44;5205535;28;20060;-69
2022/03/08 08:02:24;;;;;;;7.85;4.10;;;15.00;41.80;;;15.09;25.25;101643.78;5205766;28;20047;-70
2022/03/08 08:04:56;;;;;;;6.03;4.03;;;14.10;42.50;;;15.11;25.40;101648.22;5205596;28;20049;-70
2022/03/08 08:07:28;;;;;;;6.85;3.67;;;13.80;43.20;;;15.58;25.00;101645.19;5205059;28;20053;-70
2022/03/08 08:10:00;;;;;;;5.95;3.40;;;13.90;43.20;;;15.96;25.05;101644.53;5205663;28;20045;-69
2022/03/08 08:12:34;;;;;;;7.85;4.13;;;14.00;43.70;;;16.85;24.25;101646.75;5204334;28;20085;-70
2022/03/08 08:15:08;;;;;;;9.73;4.00;;;14.60;43.50;;;16.81;23.98;101650.16;5204183;28;20132;-70
2022/03/08 08:17:40;;;;;;;5.50;3.72;;;14.70;42.70;;;17.07;23.69;101648.97;5204426;28;20057;-70
2022/03/08 08:20:13;;;;;;;5.70;3.75;;;14.80;43.20;;;17.51;23.61;101643.75;5203553;28;20045;-70
2022/03/08 08:22:45;;;;;;;7.20;4.00;;;15.20;42.70;;;17.93;23.21;101653.41;5205034;28;20053;-69
2022/03/08 08:25:17;;;;;;;8.20;3.90;;;15.60;42.10;;;18.37;22.98;101648.84;5205409;28;20405;-69
2022/03/08 08:27:50;;;;;;;6.65;3.58;;;16.00;41.90;;;17.93;23.59;101650.75;5203470;28;20056;-72
2022/03/08 08:30:23;;;;;;;7.13;3.33;;;16.00;41.30;;;18.08;27.48;101640.47;5205003;28;20049;-74
2022/03/08 08:32:55;;;;;;;8.48;3.50;;;16.20;48.50;;;18.15;25.64;101649.38;5205550;28;20413;-74
2022/03/08 08:35:27;;;;;;;8.73;4.13;;;16.40;45.00;;;17.90;23.41;101654.22;5205139;28;20055;-70
2022/03/08 08:37:59;;;;;;;8.05;4.32;;;16.40;41.60;;;17.62;23.30;101652.78;5204803;28;20056;-71
2022/03/08 08:40:31;;;;;;;7.47;3.70;;;16.20;40.80;;;17.44;26.42;101639.22;5205159;28;20047;-76
2022/03/08 08:43:06;;;;;;;5.88;3.40;;;16.10;45.80;;;17.90;26.07;101650.69;5205206;28;20049;-74
2022/03/08 08:45:38;;;;;;;7.82;4.20;;;16.30;45.60;;;18.15;23.25;101650.25;5205062;28;20057;-70
2022/03/08 08:48:11;;;;;;;8.00;4.07;;;16.60;41.10;;;18.52;23.29;101637.69;5187484;28;20056;-70
2022/03/08 08:50:43;;;;;;;6.45;3.92;;;16.80;41.40;;;18.52;22.73;101634.13;5199793;28;20498;-71
2022/03/08 08:53:15;;;;;;;6.55;4.10;;;16.80;40.70;;;18.09;22.49;101642.25;5203289;28;20494;-70
2022/03/08 08:55:48;;;;;;;8.93;4.03;;;16.50;40.20;;;17.43;23.23;101637.44;5204960;28;20049;-72
2022/03/08 08:58:21;;;;;;;7.57;4.45;;;16.10;40.70;;;17.36;23.82;101635.56;5204253;28;20053;-70
2022/03/08 09:00:53;;;;;;;7.55;4.15;;;16.00;41.30;;;17.18;23.58;101635.16;5204853;28;20052;-71
2022/03/08 09:03:25;;;;;;;6.68;3.60;;;15.90;41.00;;;16.35;23.81;101635.88;5204812;28;20053;-71
2022/03/08 09:05:58;;;;;;;6.95;3.88;;;15.60;40.60;;;15.24;26.05;101638.97;5205775;28;20501;-73
2022/03/08 09:08:30;;;;;;;7.43;3.70;;;14.80;42.80;;;14.68;26.11;101635.56;5204631;28;20045;-71
2022/03/08 09:11:04;;;;;;;6.63;3.83;;;14.40;42.30;;;14.17;26.53;101625.13;5205229;28;20049;-70
2022/03/08 09:13:37;;;;;;;6.32;4.10;;;14.00;42.70;;;13.61;27.42;101621.41;5205268;28;20516;-72
2022/03/08 09:16:10;;;;;;;6.32;3.45;;;13.60;43.30;;;13.16;28.09;101616.25;5205098;28;20487;-71
2022/03/08 09:18:42;;;;;;;7.88;3.53;;;13.20;44.10;;;13.07;30.79;101615.94;5204974;28;20050;-74
2022/03/08 09:21:14;;;;;;;6.80;4.30;;;13.10;48.60;;;12.52;30.16;101612.88;5205239;28;20391;-74
2022/03/08 09:23:46;;;;;;;7.90;3.35;;;12.80;47.00;;;12.42;31.23;101612.53;5205442;28;20475;-74
2022/03/08 09:26:19;;;;;;;8.90;3.97;;;12.70;47.50;;;12.43;30.30;101602.97;5205374;28;20060;-74
2022/03/08 09:28:52;;;;;;;6.15;3.20;;;12.60;47.00;;;12.42;31.16;101607.31;5205485;28;20049;-74
2022/03/08 09:31:24;;;;;;;6.28;3.03;;;12.60;48.10;;;12.61;30.12;101603.69;5205338;28;20045;-72
2022/03/08 09:33:56;;;;;;;6.28;3.72;;;12.70;47.20;;;12.25;28.97;101607.44;5204839;28;20053;-70
2022/03/08 09:36:28;;;;;;;7.32;3.17;;;12.50;44.50;;;11.88;28.89;101611.16;5204691;28;20055;-71
2022/03/08 09:39:00;;;;;;;7.03;3.20;;;12.20;44.20;;;11.65;29.51;101597.06;5204168;28;20060;-71
2022/03/08 09:41:32;;;;;;;7.45;3.53;;;11.90;44.90;;;11.27;29.57;101603.22;5204690;28;20053;-70
2022/03/08 09:44:10;;;;;;;6.82;3.25;;;11.60;45.00;;;11.00;30.21;101590.72;5204770;28;20060;-70
2022/03/08 09:46:43;;;;;;;6.82;3.33;;;11.20;45.70;;;11.12;30.57;101599.09;5204798;28;20053;-71
2022/03/08 09:49:15;;;;;;;6.07;3.17;;;11.20;46.50;;;10.95;30.24;101588.69;5204704;28;20516;-70
2022/03/08 09:51:47;;;;;;;6.20;3.08;;;11.10;46.10;;;11.21;32.71;101593.38;5205003;28;20461;-69
2022/03/08 09:54:19;;;;;;;4.85;2.80;;;11.10;50.70;;;11.34;30.07;101589.59;5204993;28;20045;-70
2022/03/08 09:56:51;;;;;;;6.00;2.42;;;11.20;46.30;;;11.44;30.41;101588.31;5204798;28;20055;-73
2022/03/08 09:59:29;;;;;;;5.82;2.97;;;11.30;47.10;;;11.04;29.89;101604.81;5204937;28;20504;-72
2022/03/08 10:02:01;;;;;;;6.53;3.20;;;11.10;45.60;;;10.82;29.84;101592.47;5205152;28;20064;-70
2022/03/08 10:04:33;;;;;;;5.05;3.10;;;11.00;45.50;;;10.93;30.24;101586.03;5205081;28;20283;-71
2022/03/08 10:07:09;;;;;;;5.32;2.78;;;11.00;46.30;;;11.07;29.94;101590.16;5204772;28;20050;-71
2022/03/08 10:09:55;;;;;;;5.93;3.03;;;11.00;46.20;;;10.89;30.36;101576.31;5205026;28;20087;-71
2022/03/08 10:12:28;;;;;;;4.93;3.50;;;10.90;46.20;;;10.90;30.51;101590.25;5204595;28;20383;-72
2022/03/08 10:15:18;;;;;;;6.13;3.47;;;10.90;46.30;;;10.97;30.35;101585.38;5204507;28;20049;-70
2022/03/08 10:17:50;;;;;;;6.65;3.28;;;10.90;46.20;;;10.63;30.32;101585.53;5205726;28;20490;-70
2022/03/08 10:20:31;;;;;;;5.00;2.72;;;10.80;46.10;;;10.28;30.58;101591.66;5231892;23;20055;-79
2022/03/08 10:23:12;;;;;;;5.88;2.97;;;10.50;46.00;;;10.17;31.20;101579.75;5214621;28;20120;-80
2022/03/08 10:25:44;;;;;;;5.53;3.10;;;10.40;46.80;;;10.00;31.29;101564.22;5210254;28;20045;-79
2022/03/08 10:28:16;;;;;;;5.22;2.95;;;10.30;47.10;;;10.32;31.21;101580.56;5212928;28;20059;-78
2022/03/08 10:30:52;;;;;;;7.25;3.30;;;10.30;47.20;;;10.32;31.15;101567.53;5209979;28;20049;-80
2022/03/08 10:33:36;;;;;;;4.97;2.70;;;10.40;47.80;;;10.55;31.12;101568.59;5210428;28;20496;-79
2022/03/08 10:36:15;;;;;;;4.60;2.42;;;10.50;47.30;;;10.89;30.80;101552.81;5209897;28;20045;-79
2022/03/08 10:39:10;;;;;;;6.38;2.63;;;10.60;47.20;;;11.09;30.25;101556.34;5209405;28;20053;-80
2022/03/08 10:41:51;;;;;;;5.80;3.00;;;10.80;46.80;;;11.02;29.99;101564.69;5210971;28;20056;-78
2022/03/08 10:44:38;;;;;;;12.02;3.08;;;10.90;46.10;;;10.98;30.08;101540.19;5212136;28;20067;-78